createdAt,value
2022-09-05T00:00:25.960Z,59.41
2022-09-05T00:06:02.550Z,60.23
2022-09-05T00:11:42.736Z,61.14
2022-09-05T00:17:07.767Z,70.98
2022-09-05T00:24:35.811Z,68.60
2022-09-05T00:28:26.836Z,64.21
2022-09-05T00:34:01.531Z,60.94
2022-09-05T00:39:22.386Z,56.03
2022-09-05T00:44:47.448Z,57.83
2022-09-05T00:50:13.084Z,59.15
2022-09-05T00:56:03.699Z,60.46
2022-09-05T01:01:47.180Z,69.04
2022-09-05T01:07:44.152Z,65.68
2022-09-05T01:13:05.647Z,62.46
2022-09-05T01:18:36.624Z,60.14
2022-09-05T01:24:28.305Z,56.49
2022-09-05T01:30:10.984Z,58.21
2022-09-05T01:35:27.208Z,60.42
2022-09-05T01:41:18.692Z,67.59
2022-09-05T01:47:09.956Z,65.88
2022-09-05T01:52:57.285Z,61.54
2022-09-05T01:58:23.232Z,58.50
2022-09-05T02:03:43.672Z,56.54
2022-09-05T02:09:34.045Z,59.26
2022-09-05T02:15:24.651Z,66.62
2022-09-05T02:20:40.183Z,64.43
2022-09-05T02:26:04.664Z,61.55
2022-09-05T02:31:31.539Z,60.63
2022-09-05T02:40:02.344Z,56.88
2022-09-05T02:45:11.903Z,58.80
2022-09-05T02:49:21.721Z,60.46
2022-09-05T02:57:41.148Z,68.33
2022-09-05T03:00:34.354Z,65.42
2022-09-05T03:06:05.558Z,62.51
2022-09-05T03:11:55.684Z,60.36
2022-09-05T03:17:37.379Z,56.90
2022-09-05T03:23:08.697Z,58.74
2022-09-05T03:28:46.436Z,59.66
2022-09-05T03:34:37.233Z,68.29
2022-09-05T03:40:16.011Z,65.91
2022-09-05T03:45:37.185Z,63.47
2022-09-05T03:56:05.604Z,61.75
2022-09-05T03:57:11.162Z,58.17
2022-09-05T04:08:06.331Z,57.80
2022-09-05T04:08:20.442Z,60.14
2022-09-05T04:13:25.105Z,66.42
2022-09-05T04:18:46.746Z,64.58
2022-09-05T04:24:26.431Z,62.71
2022-09-05T04:29:48.666Z,62.52
2022-09-05T04:35:20.285Z,61.15
2022-09-05T04:40:42.448Z,59.28
2022-09-05T04:46:00.758Z,56.24
2022-09-05T04:52:00.657Z,59.19
2022-09-05T04:57:30.774Z,66.38
2022-09-05T05:06:09.429Z,65.12
2022-09-05T05:08:50.299Z,62.27
2022-09-05T05:18:13.402Z,60.39
2022-09-05T05:20:39.723Z,57.80
2022-09-05T05:25:57.492Z,64.27
2022-09-05T05:31:14.593Z,64.95
2022-09-05T05:36:33.976Z,62.43
2022-09-05T05:41:51.986Z,60.97
2022-09-05T05:47:15.574Z,60.56
2022-09-05T05:53:05.861Z,59.75
2022-09-05T05:58:56.142Z,56.02
2022-09-05T06:04:46.809Z,56.82
2022-09-05T06:14:48.638Z,62.83
2022-09-05T06:16:27.342Z,55.36
2022-09-05T06:22:10.089Z,55.46
2022-09-05T06:28:18.115Z,55.68
2022-09-05T06:33:56.447Z,53.58
2022-09-05T06:39:12.079Z,54.32
2022-09-05T06:44:43.148Z,53.00
2022-09-05T06:50:27.414Z,51.28
2022-09-05T06:56:09.975Z,51.27
2022-09-05T07:02:00.210Z,47.63
2022-09-05T07:07:06.734Z,44.62
2022-09-05T07:12:30.052Z,43.27
2022-09-05T07:18:08.958Z,41.90
2022-09-05T07:24:06.667Z,40.00
2022-09-05T07:29:18.990Z,38.21
2022-09-05T07:34:36.644Z,38.15
2022-09-05T07:39:55.059Z,38.70
2022-09-05T07:45:36.474Z,39.03
2022-09-05T07:55:23.462Z,39.23
2022-09-05T07:56:59.651Z,39.01
2022-09-05T08:02:16.413Z,39.01
2022-09-05T08:07:48.007Z,40.02
2022-09-05T08:13:23.553Z,41.04
2022-09-05T08:19:12.169Z,41.95
2022-09-05T08:24:32.699Z,42.16
2022-09-05T08:30:25.248Z,42.61
2022-09-05T08:35:41.901Z,43.01
2022-09-05T08:41:43.152Z,43.69
2022-09-05T08:47:45.237Z,43.37
2022-09-05T08:53:45.742Z,43.73
2022-09-05T08:59:31.905Z,43.03
2022-09-05T09:05:14.657Z,43.01
2022-09-05T09:10:54.632Z,43.31
2022-09-05T09:16:13.434Z,42.67
2022-09-05T09:21:45.138Z,42.61
2022-09-05T09:27:05.965Z,42.44
2022-09-05T09:32:23.666Z,41.84
2022-09-05T09:37:59.661Z,41.31
2022-09-05T09:43:31.011Z,41.63
2022-09-05T09:49:22.743Z,41.06
2022-09-05T09:54:59.003Z,40.29
2022-09-05T10:00:23.203Z,39.75
2022-09-05T10:11:08.799Z,40.27
2022-09-05T10:12:31.816Z,40.32
2022-09-05T10:18:11.252Z,39.92
2022-09-05T10:23:34.876Z,39.95
2022-09-05T10:29:38.007Z,40.31
2022-09-05T10:35:21.366Z,40.11
2022-09-05T10:41:14.677Z,39.84
2022-09-05T10:46:50.286Z,39.60
2022-09-05T10:52:19.335Z,39.73
2022-09-05T10:57:46.967Z,39.56
2022-09-05T11:03:00.587Z,40.29
2022-09-05T11:08:27.349Z,40.12
2022-09-05T11:13:49.287Z,40.35
2022-09-05T11:19:07.214Z,40.36
2022-09-05T11:24:43.915Z,40.20
2022-09-05T11:30:09.588Z,39.71
2022-09-05T11:40:10.955Z,39.74
2022-09-05T11:42:10.701Z,38.52
2022-09-05T11:48:05.316Z,38.96
2022-09-05T11:53:40.044Z,38.87
2022-09-05T11:59:33.358Z,39.07
2022-09-05T12:05:48.523Z,38.34
2022-09-05T12:11:16.169Z,37.55
2022-09-05T12:16:44.040Z,38.48
2022-09-05T12:22:16.416Z,38.31
2022-09-05T12:27:45.737Z,38.49
2022-09-05T12:36:04.504Z,38.75
2022-09-05T12:41:33.759Z,38.22
2022-09-05T12:44:44.532Z,38.34
2022-09-05T12:50:15.323Z,38.53
2022-09-05T12:57:27.702Z,37.95
2022-09-05T13:03:08.862Z,38.09
2022-09-05T13:07:23.321Z,38.42
2022-09-05T13:14:48.321Z,38.34
2022-09-05T13:18:40.893Z,38.28
2022-09-05T13:24:05.844Z,38.16
2022-09-05T13:29:23.356Z,37.63
2022-09-05T13:38:00.576Z,37.87
2022-09-05T13:40:19.762Z,37.86
2022-09-05T13:45:58.110Z,37.54
2022-09-05T13:51:37.800Z,38.40
2022-09-05T13:57:31.745Z,39.15
2022-09-05T14:08:42.265Z,39.39
2022-09-05T14:14:11.256Z,39.53
2022-09-05T14:19:49.079Z,38.98
2022-09-05T14:25:10.921Z,39.51
2022-09-05T14:32:20.897Z,40.16
2022-09-05T14:37:53.653Z,40.76
2022-09-05T14:42:33.574Z,41.26
2022-09-05T14:47:48.480Z,40.99
2022-09-05T15:02:41.867Z,40.77
2022-09-05T15:04:37.368Z,40.93
2022-09-05T15:12:17.768Z,40.88
2022-09-05T15:15:00.038Z,41.04
2022-09-05T15:20:07.468Z,41.01
2022-09-05T15:25:19.688Z,41.42
2022-09-05T15:30:35.994Z,41.62
2022-09-05T15:35:42.698Z,41.91
2022-09-05T15:40:44.187Z,43.00
2022-09-05T15:45:46.209Z,43.38
2022-09-05T15:50:51.640Z,44.08
2022-09-05T15:55:59.805Z,43.82
2022-09-05T16:01:12.860Z,44.04
2022-09-05T16:10:50.976Z,44.05
2022-09-05T16:12:13.563Z,44.05
2022-09-05T16:23:19.593Z,44.20
2022-09-05T16:23:26.994Z,43.69
2022-09-05T16:28:30.902Z,44.29
2022-09-05T16:33:33.214Z,45.12
2022-09-05T16:38:49.454Z,44.98
2022-09-05T16:43:57.382Z,45.21
2022-09-05T16:49:16.830Z,45.71
2022-09-05T16:54:37.164Z,45.92
2022-09-05T16:59:42.588Z,46.39
2022-09-05T17:05:22.726Z,46.82
2022-09-05T17:10:28.443Z,46.25
2022-09-05T17:15:37.510Z,46.84
2022-09-05T17:20:43.154Z,48.06
2022-09-05T17:29:45.638Z,49.00
2022-09-05T17:31:53.505Z,48.88
2022-09-05T17:37:18.138Z,49.89
2022-09-05T17:42:32.778Z,50.12
2022-09-05T17:48:01.559Z,50.75
2022-09-05T17:53:24.943Z,50.88
2022-09-05T17:58:49.320Z,50.70
2022-09-05T18:03:53.524Z,50.20
2022-09-05T18:08:56.073Z,52.15
2022-09-05T18:14:01.102Z,53.50
2022-09-05T18:19:35.896Z,52.15
2022-09-05T18:24:45.202Z,53.85
2022-09-05T18:30:07.959Z,54.50
2022-09-05T18:35:37.513Z,52.96
2022-09-05T18:41:17.618Z,52.44
2022-09-05T18:46:41.199Z,52.21
2022-09-05T18:51:53.792Z,52.59
2022-09-05T18:57:26.731Z,53.31
2022-09-05T19:02:49.947Z,54.36
2022-09-05T19:07:51.015Z,56.04
2022-09-05T19:13:11.005Z,54.58
2022-09-05T19:18:26.332Z,54.42
2022-09-05T19:23:48.876Z,54.59
2022-09-05T19:37:04.520Z,55.34
2022-09-05T19:37:10.401Z,54.98
2022-09-05T19:44:29.509Z,56.52
2022-09-05T19:47:37.701Z,56.45
2022-09-05T19:50:47.443Z,56.71
2022-09-05T19:55:49.363Z,56.89
2022-09-05T20:01:02.631Z,56.80
2022-09-05T20:06:04.277Z,56.60
2022-09-05T20:11:09.928Z,57.76
2022-09-05T20:16:13.627Z,59.16
2022-09-05T20:21:28.059Z,58.37
2022-09-05T20:26:33.121Z,58.67
2022-09-05T20:31:36.060Z,58.98
2022-09-05T20:43:08.196Z,59.27
2022-09-05T20:43:21.593Z,58.88
2022-09-05T20:54:05.957Z,58.29
2022-09-05T20:54:20.747Z,58.17
2022-09-05T20:58:31.215Z,59.16
2022-09-05T21:03:40.003Z,59.54
2022-09-05T21:08:41.574Z,59.70
2022-09-05T21:13:52.561Z,60.61
2022-09-05T21:18:54.610Z,60.91
2022-09-05T21:24:21.596Z,60.23
2022-09-05T21:29:32.971Z,60.16
2022-09-05T21:34:45.073Z,69.46
2022-09-05T21:39:59.509Z,68.78
2022-09-05T21:47:40.314Z,63.03
2022-09-05T21:50:31.600Z,56.31
2022-09-05T21:59:25.804Z,56.01
2022-09-05T22:00:55.521Z,57.24
2022-09-05T22:05:56.791Z,58.32
2022-09-05T22:11:02.052Z,59.28
2022-09-05T22:16:04.195Z,60.12
2022-09-05T22:21:33.253Z,60.90
2022-09-05T22:27:10.813Z,69.05
2022-09-05T22:32:08.173Z,67.41
2022-09-05T22:37:09.297Z,62.17
2022-09-05T22:42:11.183Z,56.59
2022-09-05T22:47:12.580Z,55.73
2022-09-05T22:52:13.735Z,56.58
2022-09-05T22:57:14.890Z,58.17
2022-09-05T23:02:16.077Z,59.00
2022-09-05T23:07:20.039Z,59.97
2022-09-05T23:12:21.148Z,67.74
2022-09-05T23:17:22.401Z,67.55
2022-09-05T23:22:24.638Z,62.87
2022-09-05T23:27:26.009Z,57.46
2022-09-05T23:32:27.152Z,57.71
2022-09-05T23:37:28.436Z,58.63
2022-09-05T23:42:29.985Z,60.64
2022-09-05T23:47:31.097Z,67.23
2022-09-05T23:52:38.785Z,67.37
2022-09-05T23:57:39.977Z,62.47
